sensor_id;sensor_type;location;lat;lon;timestamp;pressure;altitude;pressure_sealevel;temperature
67515;BMP280;60646;55.802;37.032;2022-08-11T00:01:19;100616.84;;;19.51
67515;BMP280;60646;55.802;37.032;2022-08-11T00:03:52;100628.13;;;19.55
67515;BMP280;60646;55.802;37.032;2022-08-11T00:06:31;100616.44;;;19.47
67515;BMP280;60646;55.802;37.032;2022-08-11T00:08:57;100633.44;;;19.48
67515;BMP280;60646;55.802;37.032;2022-08-11T00:11:35;100619.88;;;19.48
67515;BMP280;60646;55.802;37.032;2022-08-11T00:14:03;100621.31;;;19.36
67515;BMP280;60646;55.802;37.032;2022-08-11T00:16:29;100637.50;;;19.41
67515;BMP280;60646;55.802;37.032;2022-08-11T00:18:57;100631.34;;;19.41
67515;BMP280;60646;55.802;37.032;2022-08-11T00:21:25;100627.56;;;19.31
67515;BMP280;60646;55.802;37.032;2022-08-11T00:24:00;100641.97;;;19.39
67515;BMP280;60646;55.802;37.032;2022-08-11T00:26:27;100642.28;;;19.35
67515;BMP280;60646;55.802;37.032;2022-08-11T00:28:55;100642.09;;;19.33
67515;BMP280;60646;55.802;37.032;2022-08-11T00:31:25;100639.38;;;19.33
67515;BMP280;60646;55.802;37.032;2022-08-11T00:33:53;100638.97;;;19.29
67515;BMP280;60646;55.802;37.032;2022-08-11T00:36:24;100638.72;;;19.27
67515;BMP280;60646;55.802;37.032;2022-08-11T00:38:51;100634.13;;;19.22
67515;BMP280;60646;55.802;37.032;2022-08-11T00:44:55;100651.78;;;19.29
67515;BMP280;60646;55.802;37.032;2022-08-11T00:53:29;100652.50;;;19.16
67515;BMP280;60646;55.802;37.032;2022-08-11T00:56:12;100652.91;;;19.07
67515;BMP280;60646;55.802;37.032;2022-08-11T01:14:59;100654.94;;;18.88
67515;BMP280;60646;55.802;37.032;2022-08-11T01:35:26;100671.59;;;18.79
67515;BMP280;60646;55.802;37.032;2022-08-11T01:41:28;100681.97;;;18.75
67515;BMP280;60646;55.802;37.032;2022-08-11T01:53:00;100693.75;;;18.59
67515;BMP280;60646;55.802;37.032;2022-08-11T01:55:36;100679.88;;;18.49
67515;BMP280;60646;55.802;37.032;2022-08-11T01:58:47;100689.97;;;18.49
67515;BMP280;60646;55.802;37.032;2022-08-11T02:01:04;100681.66;;;18.47
67515;BMP280;60646;55.802;37.032;2022-08-11T02:03:42;100687.81;;;18.47
67515;BMP280;60646;55.802;37.032;2022-08-11T02:11:49;100698.63;;;18.29
67515;BMP280;60646;55.802;37.032;2022-08-11T02:14:26;100700.97;;;18.38
67515;BMP280;60646;55.802;37.032;2022-08-11T02:19:29;100689.84;;;18.23
67515;BMP280;60646;55.802;37.032;2022-08-11T02:25:06;100704.03;;;18.29
67515;BMP280;60646;55.802;37.032;2022-08-11T02:27:49;100689.84;;;18.23
67515;BMP280;60646;55.802;37.032;2022-08-11T02:30:23;100700.59;;;18.28
67515;BMP280;60646;55.802;37.032;2022-08-11T02:32:57;100704.53;;;18.27
67515;BMP280;60646;55.802;37.032;2022-08-11T02:36:09;100696.72;;;18.24
67515;BMP280;60646;55.802;37.032;2022-08-11T02:41:36;100703.00;;;18.32
67515;BMP280;60646;55.802;37.032;2022-08-11T02:47:08;100706.06;;;18.23
67515;BMP280;60646;55.802;37.032;2022-08-11T02:52:54;100719.03;;;18.30
67515;BMP280;60646;55.802;37.032;2022-08-11T02:58:11;100698.47;;;18.21
67515;BMP280;60646;55.802;37.032;2022-08-11T03:01:11;100707.97;;;18.28
67515;BMP280;60646;55.802;37.032;2022-08-11T03:09:59;100719.84;;;18.25
67515;BMP280;60646;55.802;37.032;2022-08-11T03:12:39;100724.63;;;18.32
67515;BMP280;60646;55.802;37.032;2022-08-11T03:15:30;100725.69;;;18.29
67515;BMP280;60646;55.802;37.032;2022-08-11T03:18:21;100725.69;;;18.29
67515;BMP280;60646;55.802;37.032;2022-08-11T03:21:01;100721.75;;;18.30
67515;BMP280;60646;55.802;37.032;2022-08-11T03:23:49;100714.13;;;18.28
67515;BMP280;60646;55.802;37.032;2022-08-11T03:27:01;100729.94;;;18.43
67515;BMP280;60646;55.802;37.032;2022-08-11T03:29:43;100724.09;;;18.39
67515;BMP280;60646;55.802;37.032;2022-08-11T03:32:25;100732.81;;;18.45
67515;BMP280;60646;55.802;37.032;2022-08-11T03:34:54;100729.94;;;18.43
67515;BMP280;60646;55.802;37.032;2022-08-11T03:37:40;100731.41;;;18.44
67515;BMP280;60646;55.802;37.032;2022-08-11T03:40:29;100733.75;;;18.53
67515;BMP280;60646;55.802;37.032;2022-08-11T03:46:15;100724.66;;;18.50
67515;BMP280;60646;55.802;37.032;2022-08-11T03:48:55;100743.66;;;18.63
67515;BMP280;60646;55.802;37.032;2022-08-11T03:51:44;100743.22;;;18.59
67515;BMP280;60646;55.802;37.032;2022-08-11T03:54:24;100751.72;;;18.69
67515;BMP280;60646;55.802;37.032;2022-08-11T03:57:19;100741.56;;;18.75
67515;BMP280;60646;55.802;37.032;2022-08-11T04:17:58;100743.00;;;19.08
67515;BMP280;60646;55.802;37.032;2022-08-11T04:38:13;100731.00;;;19.74
67515;BMP280;60646;55.802;37.032;2022-08-11T04:43:58;100735.94;;;19.89
67515;BMP280;60646;55.802;37.032;2022-08-11T04:56:16;100742.75;;;20.29
67515;BMP280;60646;55.802;37.032;2022-08-11T04:59:30;100734.75;;;20.44
67515;BMP280;60646;55.802;37.032;2022-08-11T05:02:43;100741.19;;;20.54
67515;BMP280;60646;55.802;37.032;2022-08-11T05:17:03;100748.00;;;21.02
67515;BMP280;60646;55.802;37.032;2022-08-11T05:19:49;100733.34;;;21.05
67515;BMP280;60646;55.802;37.032;2022-08-11T05:22:33;100742.66;;;21.17
67515;BMP280;60646;55.802;37.032;2022-08-11T05:25:31;100733.69;;;21.30
67515;BMP280;60646;55.802;37.032;2022-08-11T05:28:30;100744.66;;;21.45
67515;BMP280;60646;55.802;37.032;2022-08-11T05:31:17;100735.44;;;21.48
67515;BMP280;60646;55.802;37.032;2022-08-11T05:34:18;100741.00;;;21.63
67515;BMP280;60646;55.802;37.032;2022-08-11T05:37:06;100742.81;;;21.68
67515;BMP280;60646;55.802;37.032;2022-08-11T05:39:53;100737.81;;;21.87
67515;BMP280;60646;55.802;37.032;2022-08-11T05:42:42;100743.13;;;21.92
67515;BMP280;60646;55.802;37.032;2022-08-11T05:45:33;100734.63;;;22.04
67515;BMP280;60646;55.802;37.032;2022-08-11T05:48:17;100730.47;;;22.10
67515;BMP280;60646;55.802;37.032;2022-08-11T05:51:02;100735.56;;;22.21
67515;BMP280;60646;55.802;37.032;2022-08-11T05:53:57;100719.59;;;22.25
67515;BMP280;60646;55.802;37.032;2022-08-11T05:56:58;100716.72;;;22.38
67515;BMP280;60646;55.802;37.032;2022-08-11T05:59:26;100731.13;;;22.46
67515;BMP280;60646;55.802;37.032;2022-08-11T06:01:59;100731.31;;;22.56
67515;BMP280;60646;55.802;37.032;2022-08-11T06:04:26;100734.94;;;22.66
67515;BMP280;60646;55.802;37.032;2022-08-11T06:06:57;100731.31;;;22.79
67515;BMP280;60646;55.802;37.032;2022-08-11T06:12:20;100735.66;;;22.97
67515;BMP280;60646;55.802;37.032;2022-08-11T06:14:50;100728.78;;;22.96
67515;BMP280;60646;55.802;37.032;2022-08-11T06:17:27;100718.22;;;23.00
67515;BMP280;60646;55.802;37.032;2022-08-11T06:20:04;100746.00;;;23.21
67515;BMP280;60646;55.802;37.032;2022-08-11T06:22:31;100733.47;;;23.18
67515;BMP280;60646;55.802;37.032;2022-08-11T06:24:59;100727.09;;;23.23
67515;BMP280;60646;55.802;37.032;2022-08-11T06:27:27;100739.41;;;23.39
67515;BMP280;60646;55.802;37.032;2022-08-11T06:29:55;100729.41;;;23.41
67515;BMP280;60646;55.802;37.032;2022-08-11T06:32:31;100743.19;;;23.58
67515;BMP280;60646;55.802;37.032;2022-08-11T06:43:59;100745.59;;;23.94
67515;BMP280;60646;55.802;37.032;2022-08-11T06:46:39;100744.81;;;24.01
67515;BMP280;60646;55.802;37.032;2022-08-11T06:49:33;100739.69;;;24.05
67515;BMP280;60646;55.802;37.032;2022-08-11T06:52:18;100739.69;;;24.05
67515;BMP280;60646;55.802;37.032;2022-08-11T06:54:51;100736.00;;;24.18
67515;BMP280;60646;55.802;37.032;2022-08-11T06:57:28;100730.88;;;24.22
67515;BMP280;60646;55.802;37.032;2022-08-11T07:00:16;100734.09;;;24.28
67515;BMP280;60646;55.802;37.032;2022-08-11T07:03:20;100731.03;;;24.48
67515;BMP280;60646;55.802;37.032;2022-08-11T07:11:37;100741.06;;;24.71
67515;BMP280;60646;55.802;37.032;2022-08-11T07:14:29;100737.47;;;24.68
67515;BMP280;60646;55.802;37.032;2022-08-11T07:17:16;100727.22;;;24.69
67515;BMP280;60646;55.802;37.032;2022-08-11T07:19:55;100728.56;;;24.85
67515;BMP280;60646;55.802;37.032;2022-08-11T07:22:43;100741.25;;;24.90
67515;BMP280;60646;55.802;37.032;2022-08-11T07:25:30;100731.00;;;24.98
67515;BMP280;60646;55.802;37.032;2022-08-11T07:28:22;100737.41;;;25.10
67515;BMP280;60646;55.802;37.032;2022-08-11T07:31:09;100731.16;;;25.17
67515;BMP280;60646;55.802;37.032;2022-08-11T07:33:45;100734.03;;;25.19
67515;BMP280;60646;55.802;37.032;2022-08-11T07:36:12;100728.75;;;25.21
67515;BMP280;60646;55.802;37.032;2022-08-11T07:38:42;100739.34;;;25.34
67515;BMP280;60646;55.802;37.032;2022-08-11T07:41:14;100727.25;;;25.37
67515;BMP280;60646;55.802;37.032;2022-08-11T07:43:41;100743.63;;;25.45
67515;BMP280;60646;55.802;37.032;2022-08-11T07:46:09;100720.25;;;25.44
67515;BMP280;60646;55.802;37.032;2022-08-11T07:48:55;100725.50;;;25.49
67515;BMP280;60646;55.802;37.032;2022-08-11T07:51:41;100729.59;;;25.58
67515;BMP280;60646;55.802;37.032;2022-08-11T07:54:26;100734.81;;;25.63
67515;BMP280;60646;55.802;37.032;2022-08-11T07:56:52;100726.59;;;25.63
67515;BMP280;60646;55.802;37.032;2022-08-11T07:59:19;100729.06;;;25.69
67515;BMP280;60646;55.802;37.032;2022-08-11T08:02:03;100721.75;;;25.71
67515;BMP280;60646;55.802;37.032;2022-08-11T08:04:48;100725.66;;;25.78
67515;BMP280;60646;55.802;37.032;2022-08-11T08:07:33;100719.94;;;25.83
67515;BMP280;60646;55.802;37.032;2022-08-11T08:10:20;100714.91;;;25.89
67515;BMP280;60646;55.802;37.032;2022-08-11T08:13:05;100720.75;;;26.03
67515;BMP280;60646;55.802;37.032;2022-08-11T08:15:51;100716.00;;;26.03
67515;BMP280;60646;55.802;37.032;2022-08-11T08:18:37;100716.00;;;26.13
67515;BMP280;60646;55.802;37.032;2022-08-11T08:21:04;100711.56;;;26.17
67515;BMP280;60646;55.802;37.032;2022-08-11T08:23:38;100709.16;;;26.21
67515;BMP280;60646;55.802;37.032;2022-08-11T08:26:10;100711.63;;;26.37
67515;BMP280;60646;55.802;37.032;2022-08-11T08:28:56;100718.56;;;26.38
67515;BMP280;60646;55.802;37.032;2022-08-11T08:31:47;100720.63;;;26.47
67515;BMP280;60646;55.802;37.032;2022-08-11T08:34:14;100722.94;;;26.50
67515;BMP280;60646;55.802;37.032;2022-08-11T08:36:46;100716.72;;;26.50
67515;BMP280;60646;55.802;37.032;2022-08-11T08:39:12;100717.16;;;26.56
67515;BMP280;60646;55.802;37.032;2022-08-11T08:41:39;100710.41;;;26.57
67515;BMP280;60646;55.802;37.032;2022-08-11T08:44:10;100702.88;;;26.57
67515;BMP280;60646;55.802;37.032;2022-08-11T08:46:42;100718.78;;;26.68
67515;BMP280;60646;55.802;37.032;2022-08-11T08:49:14;100716.03;;;26.68
67515;BMP280;60646;55.802;37.032;2022-08-11T08:51:40;100716.91;;;26.90
67515;BMP280;60646;55.802;37.032;2022-08-11T08:54:19;100708.09;;;26.82
67515;BMP280;60646;55.802;37.032;2022-08-11T08:56:46;100708.09;;;26.82
67515;BMP280;60646;55.802;37.032;2022-08-11T08:59:14;100701.34;;;26.83
67515;BMP280;60646;55.802;37.032;2022-08-11T09:01:53;100712.28;;;27.02
67515;BMP280;60646;55.802;37.032;2022-08-11T09:04:25;100703.63;;;26.96
67515;BMP280;60646;55.802;37.032;2022-08-11T09:07:08;100713.88;;;27.05
67515;BMP280;60646;55.802;37.032;2022-08-11T09:12:01;100707.22;;;27.17
67515;BMP280;60646;55.802;37.032;2022-08-11T09:14:37;100689.91;;;27.15
67515;BMP280;60646;55.802;37.032;2022-08-11T09:17:22;100705.63;;;27.24
67515;BMP280;60646;55.802;37.032;2022-08-11T09:19:53;100709.09;;;27.34
67515;BMP280;60646;55.802;37.032;2022-08-11T09:22:27;100705.19;;;27.37
67515;BMP280;60646;55.802;37.032;2022-08-11T09:25:12;100714.00;;;27.45
67515;BMP280;60646;55.802;37.032;2022-08-11T09:27:58;100701.53;;;27.44
67515;BMP280;60646;55.802;37.032;2022-08-11T09:30:25;100700.41;;;27.47
67515;BMP280;60646;55.802;37.032;2022-08-11T09:32:53;100702.84;;;27.53
67515;BMP280;60646;55.802;37.032;2022-08-11T09:35:26;100712.22;;;27.59
67515;BMP280;60646;55.802;37.032;2022-08-11T09:37:54;100698.94;;;27.56
67515;BMP280;60646;55.802;37.032;2022-08-11T09:40:45;100697.19;;;27.60
67515;BMP280;60646;55.802;37.032;2022-08-11T09:43:12;100704.97;;;27.64
67515;BMP280;60646;55.802;37.032;2022-08-11T09:45:59;100695.63;;;27.57
67515;BMP280;60646;55.802;37.032;2022-08-11T09:48:28;100693.13;;;27.61
67515;BMP280;60646;55.802;37.032;2022-08-11T09:50:56;100691.94;;;27.64
67515;BMP280;60646;55.802;37.032;2022-08-11T09:53:26;100697.72;;;27.68
67515;BMP280;60646;55.802;37.032;2022-08-11T09:55:53;100699.28;;;27.71
67515;BMP280;60646;55.802;37.032;2022-08-11T09:58:20;100692.06;;;27.76
67515;BMP280;60646;55.802;37.032;2022-08-11T10:00:48;100704.63;;;27.88
67515;BMP280;60646;55.802;37.032;2022-08-11T10:03:22;100699.38;;;27.92
67515;BMP280;60646;55.802;37.032;2022-08-11T10:05:52;100684.75;;;27.90
67515;BMP280;60646;55.802;37.032;2022-08-11T10:08:40;100684.63;;;27.97
67515;BMP280;60646;55.802;37.032;2022-08-11T10:11:10;100683.13;;;28.06
67515;BMP280;60646;55.802;37.032;2022-08-11T10:13:42;100685.66;;;28.13
67515;BMP280;60646;55.802;37.032;2022-08-11T10:16:28;100684.78;;;28.20
67515;BMP280;60646;55.802;37.032;2022-08-11T10:18:55;100694.13;;;28.27
67515;BMP280;60646;55.802;37.032;2022-08-11T10:21:40;100695.38;;;28.35
67515;BMP280;60646;55.802;37.032;2022-08-11T10:24:07;100679.19;;;28.30
67515;BMP280;60646;55.802;37.032;2022-08-11T10:26:57;100672.47;;;28.43
67515;BMP280;60646;55.802;37.032;2022-08-11T10:29:27;100674.44;;;28.52
67515;BMP280;60646;55.802;37.032;2022-08-11T10:32:22;100655.28;;;28.54
67515;BMP280;60646;55.802;37.032;2022-08-11T10:35:07;100675.44;;;28.68
67515;BMP280;60646;55.802;37.032;2022-08-11T10:37:35;100675.25;;;28.75
67515;BMP280;60646;55.802;37.032;2022-08-11T10:40:03;100668.06;;;28.82
67515;BMP280;60646;55.802;37.032;2022-08-11T10:42:30;100661.53;;;28.87
67515;BMP280;60646;55.802;37.032;2022-08-11T10:45:16;100660.47;;;28.92
67515;BMP280;60646;55.802;37.032;2022-08-11T10:48:03;100666.84;;;29.06
67515;BMP280;60646;55.802;37.032;2022-08-11T10:50:33;100663.97;;;29.04
67515;BMP280;60646;55.802;37.032;2022-08-11T10:53:18;100663.88;;;29.13
67515;BMP280;60646;55.802;37.032;2022-08-11T10:56:36;100661.47;;;29.31
67515;BMP280;60646;55.802;37.032;2022-08-11T10:59:21;100646.63;;;29.13
67515;BMP280;60646;55.802;37.032;2022-08-11T11:01:49;100651.16;;;29.20
67515;BMP280;60646;55.802;37.032;2022-08-11T11:04:20;100640.44;;;29.24
67515;BMP280;60646;55.802;37.032;2022-08-11T11:09:46;100648.09;;;29.37
67515;BMP280;60646;55.802;37.032;2022-08-11T11:15:04;100623.63;;;29.20
67515;BMP280;60646;55.802;37.032;2022-08-11T11:18:03;100645.19;;;29.35
67515;BMP280;60646;55.802;37.032;2022-08-11T11:20:39;100644.25;;;29.30
67515;BMP280;60646;55.802;37.032;2022-08-11T11:31:10;100630.59;;;29.32
67515;BMP280;60646;55.802;37.032;2022-08-11T11:39:07;100624.84;;;29.17
67515;BMP280;60646;55.802;37.032;2022-08-11T11:41:34;100624.84;;;29.17
67515;BMP280;60646;55.802;37.032;2022-08-11T11:44:03;100630.59;;;29.21
67515;BMP280;60646;55.802;37.032;2022-08-11T11:46:30;100608.44;;;29.07
67515;BMP280;60646;55.802;37.032;2022-08-11T11:48:56;100635.38;;;29.20
67515;BMP280;60646;55.802;37.032;2022-08-11T11:51:25;100617.16;;;29.15
67515;BMP280;60646;55.802;37.032;2022-08-11T11:53:52;100621.59;;;29.20
67515;BMP280;60646;55.802;37.032;2022-08-11T11:56:21;100627.22;;;29.22
67515;BMP280;60646;55.802;37.032;2022-08-11T11:58:56;100624.84;;;29.28
67515;BMP280;60646;55.802;37.032;2022-08-11T12:01:42;100611.66;;;29.15
67515;BMP280;60646;55.802;37.032;2022-08-11T12:04:11;100619.81;;;29.25
67515;BMP280;60646;55.802;37.032;2022-08-11T12:06:38;100609.75;;;29.18
67515;BMP280;60646;55.802;37.032;2022-08-11T12:09:04;100614.06;;;29.21
67515;BMP280;60646;55.802;37.032;2022-08-11T12:11:31;100623.78;;;29.22
67515;BMP280;60646;55.802;37.032;2022-08-11T12:14:35;100598.28;;;29.10
67515;BMP280;60646;55.802;37.032;2022-08-11T12:17:01;100617.56;;;29.21
67515;BMP280;60646;55.802;37.032;2022-08-11T12:19:30;100612.41;;;29.16
67515;BMP280;60646;55.802;37.032;2022-08-11T12:21:56;100622.44;;;29.23
67515;BMP280;60646;55.802;37.032;2022-08-11T12:24:41;100623.78;;;29.22
67515;BMP280;60646;55.802;37.032;2022-08-11T12:27:26;100611.66;;;29.15
67515;BMP280;60646;55.802;37.032;2022-08-11T12:29:58;100602.81;;;29.17
67515;BMP280;60646;55.802;37.032;2022-08-11T12:32:29;100613.25;;;29.30
67515;BMP280;60646;55.802;37.032;2022-08-11T12:34:55;100597.31;;;29.17
67515;BMP280;60646;55.802;37.032;2022-08-11T12:40:07;100612.88;;;29.35
67515;BMP280;60646;55.802;37.032;2022-08-11T12:42:58;100615.03;;;29.37
67515;BMP280;60646;55.802;37.032;2022-08-11T12:45:43;100600.69;;;29.27
67515;BMP280;60646;55.802;37.032;2022-08-11T12:48:31;100601.63;;;29.31
67515;BMP280;60646;55.802;37.032;2022-08-11T12:51:23;100601.25;;;29.37
67515;BMP280;60646;55.802;37.032;2022-08-11T12:54:12;100605.44;;;29.38
67515;BMP280;60646;55.802;37.032;2022-08-11T12:56:42;100604.25;;;29.41
67515;BMP280;60646;55.802;37.032;2022-08-11T12:59:28;100602.13;;;29.39
67515;BMP280;60646;55.802;37.032;2022-08-11T13:02:17;100613.72;;;29.50
67515;BMP280;60646;55.802;37.032;2022-08-11T13:05:05;100603.78;;;29.44
67515;BMP280;60646;55.802;37.032;2022-08-11T13:07:32;100608.31;;;29.52
67515;BMP280;60646;55.802;37.032;2022-08-11T13:10:00;100592.28;;;29.48
67515;BMP280;60646;55.802;37.032;2022-08-11T13:12:27;100595.16;;;29.50
67515;BMP280;60646;55.802;37.032;2022-08-11T13:15:18;100608.31;;;29.63
67515;BMP280;60646;55.802;37.032;2022-08-11T13:17:45;100608.31;;;29.63
67515;BMP280;60646;55.802;37.032;2022-08-11T13:20:36;100604.59;;;29.70
67515;BMP280;60646;55.802;37.032;2022-08-11T13:23:02;100596.56;;;29.63
67515;BMP280;60646;55.802;37.032;2022-08-11T13:25:30;100586.78;;;29.60
67515;BMP280;60646;55.802;37.032;2022-08-11T13:27:58;100600.66;;;29.73
67515;BMP280;60646;55.802;37.032;2022-08-11T13:30:26;100602.78;;;29.75
67515;BMP280;60646;55.802;37.032;2022-08-11T13:33:12;100600.41;;;29.69
67515;BMP280;60646;55.802;37.032;2022-08-11T13:35:38;100600.66;;;29.73
67515;BMP280;60646;55.802;37.032;2022-08-11T13:38:06;100605.16;;;29.80
67515;BMP280;60646;55.802;37.032;2022-08-11T13:40:35;100592.47;;;29.75
67515;BMP280;60646;55.802;37.032;2022-08-11T13:43:01;100582.66;;;29.72
67515;BMP280;60646;55.802;37.032;2022-08-11T13:45:27;100579.06;;;29.70
67515;BMP280;60646;55.802;37.032;2022-08-11T13:47:57;100587.41;;;29.83
67515;BMP280;60646;55.802;37.032;2022-08-11T13:50:25;100577.41;;;29.76
67515;BMP280;60646;55.802;37.032;2022-08-11T13:53:10;100579.44;;;29.76
67515;BMP280;60646;55.802;37.032;2022-08-11T13:55:40;100576.19;;;29.79
67515;BMP280;60646;55.802;37.032;2022-08-11T13:58:09;100581.19;;;29.83
67515;BMP280;60646;55.802;37.032;2022-08-11T14:00:39;100580.72;;;29.86
67515;BMP280;60646;55.802;37.032;2022-08-11T14:03:11;100590.75;;;29.93
67515;BMP280;60646;55.802;37.032;2022-08-11T14:05:45;100572.34;;;29.84
67515;BMP280;60646;55.802;37.032;2022-08-11T14:08:15;100578.19;;;29.90
67515;BMP280;60646;55.802;37.032;2022-08-11T14:10:43;100571.59;;;29.84
67515;BMP280;60646;55.802;37.032;2022-08-11T14:13:12;100582.25;;;29.89
67515;BMP280;60646;55.802;37.032;2022-08-11T14:16:02;100574.00;;;29.89
67515;BMP280;60646;55.802;37.032;2022-08-11T14:18:30;100576.66;;;29.87
67515;BMP280;60646;55.802;37.032;2022-08-11T14:21:02;100565.38;;;29.83
67515;BMP280;60646;55.802;37.032;2022-08-11T14:23:50;100569.69;;;29.86
67515;BMP280;60646;55.802;37.032;2022-08-11T14:26:21;100563.44;;;29.86
67515;BMP280;60646;55.802;37.032;2022-08-11T14:29:15;100567.53;;;29.96
67515;BMP280;60646;55.802;37.032;2022-08-11T14:31:47;100557.09;;;29.83
67515;BMP280;60646;55.802;37.032;2022-08-11T14:34:14;100552.22;;;29.82
67515;BMP280;60646;55.802;37.032;2022-08-11T14:36:44;100545.75;;;29.77
67515;BMP280;60646;55.802;37.032;2022-08-11T14:39:14;100562.03;;;29.85
67515;BMP280;60646;55.802;37.032;2022-08-11T14:41:57;100543.84;;;29.80
67515;BMP280;60646;55.802;37.032;2022-08-11T14:44:45;100556.28;;;29.81
67515;BMP280;60646;55.802;37.032;2022-08-11T14:47:36;100543.59;;;29.76
67515;BMP280;60646;55.802;37.032;2022-08-11T14:50:23;100550.56;;;29.77
67515;BMP280;60646;55.802;37.032;2022-08-11T14:52:52;100540.97;;;29.66
67515;BMP280;60646;55.802;37.032;2022-08-11T14:55:22;100549.59;;;29.72
67515;BMP280;60646;55.802;37.032;2022-08-11T14:58:15;100537.13;;;29.71
67515;BMP280;60646;55.802;37.032;2022-08-11T15:00:41;100532.72;;;29.66
67515;BMP280;60646;55.802;37.032;2022-08-11T15:03:10;100531.16;;;29.63
67515;BMP280;60646;55.802;37.032;2022-08-11T15:05:53;100538.81;;;29.76
67515;BMP280;60646;55.802;37.032;2022-08-11T15:08:22;100526.88;;;29.60
67515;BMP280;60646;55.802;37.032;2022-08-11T15:11:30;100530.97;;;29.59
67515;BMP280;60646;55.802;37.032;2022-08-11T15:14:15;100542.19;;;29.63
67515;BMP280;60646;55.802;37.032;2022-08-11T15:17:08;100546.41;;;29.64
67515;BMP280;60646;55.802;37.032;2022-08-11T15:19:36;100533.84;;;29.50
67515;BMP280;60646;55.802;37.032;2022-08-11T15:22:30;100537.41;;;29.52
67515;BMP280;60646;55.802;37.032;2022-08-11T15:25:15;100514.69;;;29.40
67515;BMP280;60646;55.802;37.032;2022-08-11T15:27:42;100541.75;;;29.55
67515;BMP280;60646;55.802;37.032;2022-08-11T15:30:29;100538.03;;;29.51
67515;BMP280;60646;55.802;37.032;2022-08-11T15:33:16;100535.13;;;29.48
67515;BMP280;60646;55.802;37.032;2022-08-11T15:36:05;100533.38;;;29.41
67515;BMP280;60646;55.802;37.032;2022-08-11T15:38:53;100534.31;;;29.46
67515;BMP280;60646;55.802;37.032;2022-08-11T15:41:21;100545.34;;;29.46
67515;BMP280;60646;55.802;37.032;2022-08-11T15:44:10;100538.16;;;29.41
67515;BMP280;60646;55.802;37.032;2022-08-11T15:47:00;100533.97;;;29.40
67515;BMP280;60646;55.802;37.032;2022-08-11T15:49:38;100519.97;;;29.36
67515;BMP280;60646;55.802;37.032;2022-08-11T15:52:49;100537.19;;;29.48
67515;BMP280;60646;55.802;37.032;2022-08-11T15:55:17;100537.44;;;29.29
67515;BMP280;60646;55.802;37.032;2022-08-11T15:57:46;100527.88;;;29.30
67515;BMP280;60646;55.802;37.032;2022-08-11T16:00:32;100540.66;;;29.25
67515;BMP280;60646;55.802;37.032;2022-08-11T16:03:17;100538.44;;;29.22
67515;BMP280;60646;55.802;37.032;2022-08-11T16:06:21;100532.44;;;29.14
67515;BMP280;60646;55.802;37.032;2022-08-11T16:08:47;100523.81;;;29.08
67515;BMP280;60646;55.802;37.032;2022-08-11T16:11:14;100525.00;;;29.05
67515;BMP280;60646;55.802;37.032;2022-08-11T16:13:42;100528.34;;;29.03
67515;BMP280;60646;55.802;37.032;2022-08-11T16:16:08;100518.78;;;28.93
67515;BMP280;60646;55.802;37.032;2022-08-11T16:18:53;100530.38;;;29.03
67515;BMP280;60646;55.802;37.032;2022-08-11T16:21:34;100521.53;;;28.93
67515;BMP280;60646;55.802;37.032;2022-08-11T16:24:10;100521.03;;;28.85
67515;BMP280;60646;55.802;37.032;2022-08-11T16:26:40;100516.13;;;28.72
67515;BMP280;60646;55.802;37.032;2022-08-11T16:30:17;100520.69;;;28.79
67515;BMP280;60646;55.802;37.032;2022-08-11T16:32:32;100512.50;;;28.58
67515;BMP280;60646;55.802;37.032;2022-08-11T16:35:18;100507.72;;;28.58
67515;BMP280;60646;55.802;37.032;2022-08-11T16:38:12;100510.09;;;28.41
67515;BMP280;60646;55.802;37.032;2022-08-11T16:40:59;100491.41;;;28.27
67515;BMP280;60646;55.802;37.032;2022-08-11T16:43:28;100524.81;;;28.45
67515;BMP280;60646;55.802;37.032;2022-08-11T16:46:15;100513.53;;;28.29
67515;BMP280;60646;55.802;37.032;2022-08-11T16:49:15;100523.44;;;28.34
67515;BMP280;60646;55.802;37.032;2022-08-11T16:51:42;100534.75;;;28.17
67515;BMP280;60646;55.802;37.032;2022-08-11T16:54:08;100526.13;;;28.11
67515;BMP280;60646;55.802;37.032;2022-08-11T16:59:35;100523.97;;;27.89
67515;BMP280;60646;55.802;37.032;2022-08-11T17:02:29;100532.13;;;27.98
67515;BMP280;60646;55.802;37.032;2022-08-11T17:05:17;100536.81;;;27.75
67515;BMP280;60646;55.802;37.032;2022-08-11T17:08:05;100526.47;;;27.64
67515;BMP280;60646;55.802;37.032;2022-08-11T17:10:56;100530.69;;;27.55
67515;BMP280;60646;55.802;37.032;2022-08-11T17:13:58;100524.78;;;27.49
67515;BMP280;60646;55.802;37.032;2022-08-11T17:16:33;100525.44;;;27.38
67515;BMP280;60646;55.802;37.032;2022-08-11T17:19:09;100538.63;;;27.30
67515;BMP280;60646;55.802;37.032;2022-08-11T17:21:39;100536.38;;;27.17
67515;BMP280;60646;55.802;37.032;2022-08-11T17:24:32;100530.19;;;27.07
67515;BMP280;60646;55.802;37.032;2022-08-11T17:27:00;100527.50;;;26.88
67515;BMP280;60646;55.802;37.032;2022-08-11T17:29:31;100534.88;;;26.85
67515;BMP280;60646;55.802;37.032;2022-08-11T17:32:00;100530.56;;;26.73
67515;BMP280;60646;55.802;37.032;2022-08-11T17:34:46;100542.53;;;26.68
67515;BMP280;60646;55.802;37.032;2022-08-11T17:37:34;100543.41;;;26.61
67515;BMP280;60646;55.802;37.032;2022-08-11T17:40:04;100550.94;;;26.60
67515;BMP280;60646;55.802;37.032;2022-08-11T17:42:31;100550.66;;;26.47
67515;BMP280;60646;55.802;37.032;2022-08-11T17:45:17;100552.56;;;26.44
67515;BMP280;60646;55.802;37.032;2022-08-11T17:48:03;100562.78;;;26.44
67515;BMP280;60646;55.802;37.032;2022-08-11T17:50:48;100553.53;;;26.29
67515;BMP280;60646;55.802;37.032;2022-08-11T17:53:16;100555.28;;;26.35
67515;BMP280;60646;55.802;37.032;2022-08-11T17:56:02;100552.53;;;26.25
67515;BMP280;60646;55.802;37.032;2022-08-11T17:58:49;100549.75;;;26.15